createdAt,value
2022-10-12T00:01:06.989Z,8.36
2022-10-12T00:03:34.523Z,8.33
2022-10-12T00:06:09.213Z,8.33
2022-10-12T00:08:37.011Z,8.39
2022-10-12T00:11:04.729Z,8.33
2022-10-12T00:13:31.480Z,8.31
2022-10-12T00:16:02.413Z,8.33
2022-10-12T00:18:29.024Z,8.29
2022-10-12T00:21:05.673Z,8.29
2022-10-12T00:23:32.538Z,8.38
2022-10-12T00:26:11.546Z,8.34
2022-10-12T00:28:38.668Z,8.30
2022-10-12T00:31:14.233Z,8.27
2022-10-12T00:33:41.142Z,8.26
2022-10-12T00:36:28.547Z,8.29
2022-10-12T00:38:55.934Z,8.27
2022-10-12T00:41:28.079Z,8.26
2022-10-12T00:43:58.142Z,8.28
2022-10-12T00:46:33.740Z,8.26
2022-10-12T00:49:21.106Z,8.26
2022-10-12T00:51:57.720Z,8.26
2022-10-12T00:54:27.980Z,8.25
2022-10-12T00:56:55.573Z,8.30
2022-10-12T00:59:29.032Z,8.32
2022-10-12T01:01:56.204Z,8.26
2022-10-12T01:04:23.482Z,8.24
2022-10-12T01:06:50.728Z,8.27
2022-10-12T01:09:17.419Z,8.25
2022-10-12T01:11:44.022Z,8.26
2022-10-12T01:14:10.850Z,8.25
2022-10-12T01:16:47.195Z,8.25
2022-10-12T01:19:44.747Z,8.26
2022-10-12T01:22:15.928Z,8.25
2022-10-12T01:25:04.572Z,8.23
2022-10-12T01:27:34.987Z,8.36
2022-10-12T01:30:13.529Z,8.27
2022-10-12T01:33:14.683Z,8.28
2022-10-12T01:36:05.422Z,8.23
2022-10-12T01:38:45.866Z,8.31
2022-10-12T01:41:35.553Z,8.23
2022-10-12T01:44:02.713Z,8.20
2022-10-12T01:46:29.245Z,8.17
2022-10-12T01:48:58.764Z,8.21
2022-10-12T01:51:29.781Z,8.21
2022-10-12T01:54:21.267Z,8.25
2022-10-12T01:56:58.681Z,8.23
2022-10-12T01:59:34.352Z,8.25
2022-10-12T02:02:06.007Z,8.20
2022-10-12T02:04:37.743Z,8.22
2022-10-12T02:07:10.745Z,8.22
2022-10-12T02:09:37.791Z,8.21
2022-10-12T02:12:15.779Z,8.24
2022-10-12T02:14:46.463Z,8.26
2022-10-12T02:17:15.438Z,8.24
2022-10-12T02:19:45.303Z,8.23
2022-10-12T02:22:12.495Z,8.32
2022-10-12T02:24:40.967Z,8.26
2022-10-12T02:27:09.317Z,8.24
2022-10-12T02:29:40.965Z,8.23
2022-10-12T02:32:40.020Z,8.26
2022-10-12T02:35:27.963Z,8.25
2022-10-12T02:38:07.942Z,8.25
2022-10-12T02:40:41.994Z,8.23
2022-10-12T02:43:14.068Z,8.23
2022-10-12T02:45:43.558Z,8.23
2022-10-12T02:48:11.843Z,8.22
2022-10-12T02:50:38.508Z,8.20
2022-10-12T02:53:05.315Z,8.24
2022-10-12T02:55:31.968Z,8.27
2022-10-12T02:57:58.593Z,8.31
2022-10-12T03:00:25.207Z,8.22
2022-10-12T03:02:51.872Z,8.24
2022-10-12T03:05:18.619Z,8.23
2022-10-12T03:07:45.293Z,8.23
2022-10-12T03:10:11.903Z,8.15
2022-10-12T03:12:38.538Z,8.36
2022-10-12T03:15:05.454Z,8.22
2022-10-12T03:17:32.093Z,8.16
2022-10-12T03:19:58.713Z,8.17
2022-10-12T03:22:25.334Z,8.17
2022-10-12T03:24:52.053Z,8.13
2022-10-12T03:27:18.724Z,8.18
2022-10-12T03:29:45.360Z,8.14
2022-10-12T03:32:12.013Z,8.12
2022-10-12T03:34:38.664Z,8.15
2022-10-12T03:37:05.339Z,8.15
2022-10-12T03:39:31.967Z,8.16
2022-10-12T03:41:58.662Z,8.19
2022-10-12T03:44:25.296Z,8.23
2022-10-12T03:46:51.948Z,8.26
2022-10-12T03:49:18.564Z,8.17
2022-10-12T03:51:45.148Z,8.15
2022-10-12T03:54:11.820Z,8.13
2022-10-12T03:56:38.471Z,8.14
2022-10-12T03:59:05.268Z,8.14
2022-10-12T04:01:32.298Z,8.12
2022-10-12T04:03:58.942Z,8.13
2022-10-12T04:06:25.564Z,8.12
2022-10-12T04:08:54.443Z,8.15
2022-10-12T04:11:21.103Z,8.18
2022-10-12T04:13:47.754Z,8.15
2022-10-12T04:16:14.372Z,8.13
2022-10-12T04:18:41.020Z,8.11
2022-10-12T04:21:11.477Z,8.13
2022-10-12T04:23:38.199Z,8.09
2022-10-12T04:26:04.860Z,8.09
2022-10-12T04:28:31.739Z,8.07
2022-10-12T04:30:58.364Z,8.07
2022-10-12T04:33:24.971Z,8.14
2022-10-12T04:35:51.550Z,8.14
2022-10-12T04:38:18.220Z,8.10
2022-10-12T04:40:47.945Z,8.14
2022-10-12T04:43:15.214Z,8.10
2022-10-12T04:45:42.005Z,8.09
2022-10-12T04:48:08.644Z,8.09
2022-10-12T04:50:35.380Z,8.09
2022-10-12T04:53:02.128Z,8.08
2022-10-12T04:55:28.970Z,8.07
2022-10-12T04:57:55.664Z,8.06
2022-10-12T05:00:22.270Z,8.06
2022-10-12T05:02:48.882Z,8.04
2022-10-12T05:05:15.501Z,8.06
2022-10-12T05:07:42.125Z,8.09
2022-10-12T05:10:09.165Z,8.06
2022-10-12T05:12:36.070Z,8.04
2022-10-12T05:15:03.181Z,8.06
2022-10-12T05:17:29.846Z,8.06
2022-10-12T05:19:56.458Z,8.04
2022-10-12T05:22:23.074Z,8.04
2022-10-12T05:24:53.614Z,8.01
2022-10-12T05:27:21.073Z,8.04
2022-10-12T05:29:47.798Z,8.02
2022-10-12T05:32:14.705Z,8.01
2022-10-12T05:34:42.448Z,8.02
2022-10-12T05:37:09.617Z,8.01
2022-10-12T05:39:37.286Z,8.00
2022-10-12T05:42:04.303Z,8.04
2022-10-12T05:44:30.998Z,8.06
2022-10-12T05:46:57.609Z,8.03
2022-10-12T05:49:24.274Z,8.02
2022-10-12T05:51:51.025Z,8.05
2022-10-12T05:54:17.611Z,8.07
2022-10-12T05:56:44.237Z,8.03
2022-10-12T05:59:11.485Z,8.04
2022-10-12T06:01:38.166Z,8.10
2022-10-12T06:04:05.001Z,8.07
2022-10-12T06:06:31.652Z,8.08
2022-10-12T06:08:58.234Z,8.16
2022-10-12T06:11:24.841Z,8.19
2022-10-12T06:13:51.535Z,8.16
2022-10-12T06:16:18.097Z,8.13
2022-10-12T06:18:44.707Z,8.15
2022-10-12T06:23:57.949Z,8.20
2022-10-12T06:26:25.062Z,8.24
2022-10-12T06:28:51.757Z,8.26
2022-10-12T06:31:18.422Z,8.32
2022-10-12T06:33:45.059Z,8.33
2022-10-12T06:36:11.759Z,8.36
2022-10-12T06:38:38.448Z,8.38
2022-10-12T06:41:05.145Z,8.42
2022-10-12T06:43:31.899Z,8.44
2022-10-12T06:46:01.912Z,8.51
2022-10-12T06:48:29.050Z,8.53
2022-10-12T06:50:55.855Z,8.65
2022-10-12T06:53:22.727Z,8.58
2022-10-12T06:55:49.430Z,8.62
2022-10-12T06:58:16.063Z,8.62
2022-10-12T07:00:42.695Z,8.69
2022-10-12T07:03:12.602Z,8.70
2022-10-12T07:05:39.235Z,8.69
2022-10-12T07:08:05.910Z,8.73
2022-10-12T07:10:32.599Z,8.81
2022-10-12T07:12:59.243Z,8.79
2022-10-12T07:15:25.958Z,8.83
2022-10-12T07:17:52.572Z,8.83
2022-10-12T07:20:19.191Z,8.87
2022-10-12T07:22:45.779Z,8.94
2022-10-12T07:25:12.376Z,8.93
2022-10-12T07:27:39.467Z,8.97
2022-10-12T07:30:06.966Z,9.02
2022-10-12T07:32:33.582Z,9.14
2022-10-12T07:35:00.222Z,9.20
2022-10-12T07:37:26.816Z,9.20
2022-10-12T07:39:57.366Z,9.22
2022-10-12T07:42:25.281Z,9.24
2022-10-12T07:44:51.959Z,9.27
2022-10-12T07:47:19.420Z,9.35
2022-10-12T07:49:46.211Z,9.50
2022-10-12T07:52:13.020Z,9.65
2022-10-12T07:54:39.647Z,9.57
2022-10-12T07:57:06.276Z,9.55
2022-10-12T07:59:32.944Z,9.66
2022-10-12T08:01:59.686Z,9.70
2022-10-12T08:04:26.428Z,9.78
2022-10-12T08:06:53.094Z,9.85
2022-10-12T08:09:19.737Z,9.87
2022-10-12T08:11:46.357Z,9.93
2022-10-12T08:14:14.944Z,10.00
2022-10-12T08:16:42.705Z,10.09
2022-10-12T08:19:09.519Z,10.17
2022-10-12T08:21:36.121Z,10.25
2022-10-12T08:24:02.821Z,10.41
2022-10-12T08:26:30.321Z,10.60
2022-10-12T08:28:57.104Z,10.66
2022-10-12T08:31:23.754Z,10.82
2022-10-12T08:33:50.378Z,11.16
2022-10-12T08:36:17.034Z,11.36
2022-10-12T08:38:43.934Z,11.52
2022-10-12T08:41:25.099Z,11.44
2022-10-12T08:44:03.908Z,11.67
2022-10-12T08:46:30.739Z,11.72
2022-10-12T08:49:01.934Z,11.76
2022-10-12T08:51:31.390Z,11.79
2022-10-12T08:54:02.959Z,11.82
2022-10-12T08:56:29.707Z,11.84
2022-10-12T08:58:56.798Z,11.92
2022-10-12T09:01:27.024Z,12.23
2022-10-12T09:04:05.885Z,12.59
2022-10-12T09:06:42.754Z,12.59
2022-10-12T09:09:31.495Z,12.63
2022-10-12T09:12:21.889Z,12.66
2022-10-12T09:14:51.569Z,12.88
2022-10-12T09:17:22.745Z,13.00
2022-10-12T09:19:55.002Z,13.36
2022-10-12T09:22:21.725Z,13.67
2022-10-12T09:24:49.075Z,13.51
2022-10-12T09:27:18.541Z,13.83
2022-10-12T09:29:46.531Z,14.03
2022-10-12T09:32:33.827Z,14.04
2022-10-12T09:35:00.713Z,14.31
2022-10-12T09:37:32.225Z,14.63
2022-10-12T09:39:59.389Z,14.86
2022-10-12T09:42:26.022Z,15.08
2022-10-12T09:44:59.183Z,15.22
2022-10-12T09:47:31.563Z,15.25
2022-10-12T09:50:00.798Z,15.45
2022-10-12T09:52:45.852Z,15.56
2022-10-12T09:55:16.053Z,15.68
2022-10-12T09:57:44.903Z,15.83
2022-10-12T10:00:28.348Z,15.83
2022-10-12T10:02:56.086Z,15.89
2022-10-12T10:05:34.287Z,15.93
2022-10-12T10:08:19.375Z,15.90
2022-10-12T10:10:57.089Z,15.89
2022-10-12T10:13:30.323Z,15.65
2022-10-12T10:16:05.582Z,15.93
2022-10-12T10:18:36.208Z,16.07
2022-10-12T10:21:05.348Z,16.20
2022-10-12T10:23:42.622Z,16.18
2022-10-12T10:26:13.116Z,16.24
2022-10-12T10:28:44.556Z,16.18
2022-10-12T10:31:14.427Z,16.40
2022-10-12T10:33:42.259Z,16.46
2022-10-12T10:36:20.558Z,16.35
2022-10-12T10:38:56.882Z,16.43
2022-10-12T10:41:29.903Z,16.59
2022-10-12T10:43:56.551Z,16.41
2022-10-12T10:46:30.664Z,16.14
2022-10-12T10:48:59.236Z,16.10
2022-10-12T10:51:52.378Z,16.15
2022-10-12T10:54:21.994Z,15.86
2022-10-12T10:56:51.594Z,15.73
2022-10-12T10:59:22.003Z,15.64
2022-10-12T11:01:55.569Z,15.86
2022-10-12T11:04:33.009Z,16.22
2022-10-12T11:07:05.336Z,16.43
2022-10-12T11:09:42.739Z,16.81
2022-10-12T11:12:15.898Z,16.95
2022-10-12T11:14:55.702Z,17.00
2022-10-12T11:17:30.637Z,16.78
2022-10-12T11:20:28.316Z,16.56
2022-10-12T11:22:58.843Z,16.65
2022-10-12T11:25:55.800Z,16.45
2022-10-12T11:28:24.448Z,16.41
2022-10-12T11:30:53.230Z,16.39
2022-10-12T11:33:25.214Z,16.67
2022-10-12T11:35:53.213Z,16.84
2022-10-12T11:38:24.226Z,16.87
2022-10-12T11:41:31.106Z,16.21
2022-10-12T11:43:55.843Z,16.53
2022-10-12T11:46:30.743Z,16.42
2022-10-12T11:49:03.175Z,16.13
2022-10-12T11:51:29.790Z,15.99
2022-10-12T11:54:27.822Z,15.71
2022-10-12T11:56:56.982Z,15.59
2022-10-12T11:59:38.572Z,15.53
2022-10-12T12:02:22.816Z,15.42
2022-10-12T12:04:50.408Z,15.30
2022-10-12T12:07:23.350Z,15.16
2022-10-12T12:09:51.449Z,15.59
2022-10-12T12:12:26.962Z,15.89
2022-10-12T12:14:53.445Z,15.77
2022-10-12T12:17:19.913Z,16.23
2022-10-12T12:19:50.087Z,16.34
2022-10-12T12:22:20.925Z,16.26
2022-10-12T12:24:52.738Z,15.90
2022-10-12T12:27:22.739Z,15.88
2022-10-12T12:29:52.875Z,16.26
2022-10-12T12:32:20.173Z,16.36
2022-10-12T12:35:00.466Z,16.67
2022-10-12T12:37:32.009Z,17.00
2022-10-12T12:39:59.597Z,17.17
2022-10-12T12:42:33.119Z,17.14
2022-10-12T12:45:39.414Z,17.24
2022-10-12T12:48:10.482Z,16.86
2022-10-12T12:50:38.664Z,16.71
2022-10-12T12:53:15.077Z,16.85
2022-10-12T12:56:04.162Z,16.29
2022-10-12T12:58:38.310Z,16.66
2022-10-12T13:01:18.948Z,16.81
2022-10-12T13:03:54.843Z,16.75
2022-10-12T13:06:52.743Z,16.65
2022-10-12T13:09:32.743Z,16.54
2022-10-12T13:12:36.562Z,16.11
2022-10-12T13:15:35.340Z,16.29
2022-10-12T13:18:45.907Z,16.41
2022-10-12T13:21:19.060Z,16.03
2022-10-12T13:23:48.955Z,16.05
2022-10-12T13:26:22.841Z,15.92
2022-10-12T13:28:50.538Z,15.90
2022-10-12T13:31:21.628Z,15.51
2022-10-12T13:34:03.926Z,15.67
2022-10-12T13:36:33.022Z,15.53
2022-10-12T13:39:07.273Z,15.24
2022-10-12T13:41:34.676Z,15.52
2022-10-12T13:44:04.350Z,15.70
2022-10-12T13:46:44.876Z,15.85
2022-10-12T13:49:31.340Z,15.76
2022-10-12T13:52:13.743Z,16.14
2022-10-12T13:54:46.236Z,16.02
2022-10-12T13:57:48.510Z,16.10
2022-10-12T14:00:25.509Z,16.29
2022-10-12T14:03:00.968Z,16.31
2022-10-12T14:05:30.226Z,16.31
2022-10-12T14:08:11.999Z,16.26
2022-10-12T14:10:38.960Z,16.35
2022-10-12T14:13:06.046Z,16.16
2022-10-12T14:15:35.388Z,16.07
2022-10-12T14:18:06.230Z,16.21
2022-10-12T14:20:39.305Z,16.40
2022-10-12T14:23:14.513Z,16.33
2022-10-12T14:25:59.280Z,16.15
2022-10-12T14:28:31.546Z,16.21
2022-10-12T14:30:58.846Z,16.10
2022-10-12T14:33:26.532Z,15.93
2022-10-12T14:36:12.340Z,16.04
2022-10-12T14:38:45.612Z,15.88
2022-10-12T14:41:35.078Z,15.63
2022-10-12T14:44:16.226Z,15.67
2022-10-12T14:46:55.487Z,15.59
2022-10-12T14:49:24.937Z,15.29
2022-10-12T14:51:53.566Z,15.19
2022-10-12T14:54:20.254Z,15.06
2022-10-12T14:56:46.936Z,15.16
2022-10-12T14:59:13.610Z,15.19
2022-10-12T15:01:41.790Z,15.07
2022-10-12T15:04:13.447Z,15.07
2022-10-12T15:06:40.440Z,14.89
2022-10-12T15:09:07.199Z,14.61
2022-10-12T15:11:33.938Z,14.42
2022-10-12T15:14:00.537Z,14.44
2022-10-12T15:16:28.436Z,14.37
2022-10-12T15:18:55.087Z,14.14
2022-10-12T15:21:25.555Z,14.05
2022-10-12T15:23:54.579Z,14.06
2022-10-12T15:26:21.239Z,13.74
2022-10-12T15:28:47.929Z,13.64
2022-10-12T15:31:17.818Z,13.47
2022-10-12T15:33:45.102Z,13.33
2022-10-12T15:36:11.698Z,13.20
2022-10-12T15:38:38.481Z,13.05
2022-10-12T15:41:05.514Z,12.88
2022-10-12T15:43:33.735Z,12.83
2022-10-12T15:46:02.458Z,12.65
2022-10-12T15:48:29.135Z,12.61
2022-10-12T15:50:55.987Z,12.53
2022-10-12T15:53:24.816Z,12.33
2022-10-12T15:55:52.613Z,12.23
2022-10-12T15:58:21.857Z,12.18
2022-10-12T16:00:48.956Z,12.14
2022-10-12T16:03:22.925Z,11.97
2022-10-12T16:05:52.554Z,11.74
2022-10-12T16:08:19.252Z,11.58
2022-10-12T16:10:47.811Z,11.51
2022-10-12T16:13:15.561Z,11.32
2022-10-12T16:15:42.606Z,11.04
2022-10-12T16:18:10.439Z,10.76
2022-10-12T16:20:38.603Z,10.77
2022-10-12T16:23:07.644Z,10.82
2022-10-12T16:25:34.734Z,10.78
2022-10-12T16:28:01.351Z,10.66
2022-10-12T16:30:28.055Z,10.49
2022-10-12T16:32:54.702Z,10.38
2022-10-12T16:35:21.704Z,10.13
2022-10-12T16:37:48.587Z,9.98
2022-10-12T16:40:15.816Z,9.89
2022-10-12T16:42:42.822Z,9.81
2022-10-12T16:45:10.080Z,9.83
2022-10-12T16:47:42.566Z,9.70
2022-10-12T16:50:10.432Z,9.64
2022-10-12T16:52:37.450Z,9.46
2022-10-12T16:55:05.161Z,9.33
2022-10-12T16:57:31.770Z,9.38
2022-10-12T16:59:58.982Z,9.37
2022-10-12T17:02:27.389Z,9.34
2022-10-12T17:04:54.019Z,9.11
2022-10-12T17:07:26.099Z,9.06
2022-10-12T17:12:48.739Z,8.87
2022-10-12T17:15:15.671Z,8.71
2022-10-12T17:17:42.259Z,8.64
2022-10-12T17:20:09.474Z,8.62
2022-10-12T17:22:36.136Z,8.59
2022-10-12T17:25:02.783Z,8.46
2022-10-12T17:27:31.355Z,8.38
2022-10-12T17:29:59.590Z,8.30
2022-10-12T17:32:29.599Z,8.26
2022-10-12T17:34:56.261Z,8.09
2022-10-12T17:37:22.882Z,8.06
2022-10-12T17:39:50.409Z,7.99
2022-10-12T17:42:17.866Z,7.97
2022-10-12T17:44:44.740Z,7.93
2022-10-12T17:47:11.375Z,7.88
2022-10-12T17:49:38.021Z,7.80
2022-10-12T17:52:04.777Z,7.72
2022-10-12T17:54:32.781Z,7.66
2022-10-12T17:56:59.417Z,7.58
2022-10-12T17:59:26.510Z,7.59
2022-10-12T18:01:53.425Z,7.52
2022-10-12T18:04:20.497Z,7.44
2022-10-12T18:06:47.140Z,7.45
2022-10-12T18:09:14.163Z,7.41
2022-10-12T18:11:40.793Z,7.39
2022-10-12T18:14:09.729Z,7.35
2022-10-12T18:16:36.938Z,7.25
2022-10-12T18:19:28.547Z,7.23
2022-10-12T18:21:59.601Z,7.17
2022-10-12T18:24:26.372Z,7.17
2022-10-12T18:26:52.980Z,7.06
2022-10-12T18:29:19.817Z,7.13
2022-10-12T18:31:46.437Z,7.12
2022-10-12T18:34:13.095Z,7.07
2022-10-12T18:36:42.815Z,7.08
2022-10-12T18:39:09.835Z,6.97
2022-10-12T18:41:36.628Z,6.90
2022-10-12T18:44:03.747Z,6.84
2022-10-12T18:46:32.538Z,6.77
2022-10-12T18:48:59.500Z,6.76
2022-10-12T18:51:40.904Z,6.67
2022-10-12T18:54:08.962Z,6.58
2022-10-12T18:56:36.636Z,6.46
2022-10-12T18:59:03.718Z,6.49
2022-10-12T19:01:31.301Z,6.52
2022-10-12T19:03:59.117Z,6.51
2022-10-12T19:06:29.041Z,6.47
2022-10-12T19:08:56.611Z,6.39
2022-10-12T19:11:24.973Z,6.31
2022-10-12T19:13:53.845Z,6.25
2022-10-12T19:16:20.542Z,6.25
2022-10-12T19:18:47.371Z,6.20
2022-10-12T19:21:16.870Z,6.27
2022-10-12T19:23:44.190Z,6.17
2022-10-12T19:26:17.670Z,6.16
2022-10-12T19:28:45.889Z,6.12
2022-10-12T19:31:20.494Z,6.17
2022-10-12T19:33:47.648Z,6.08
2022-10-12T19:36:16.191Z,6.12
2022-10-12T19:38:42.937Z,6.16
2022-10-12T19:41:09.588Z,6.09
2022-10-12T19:43:36.550Z,6.04
2022-10-12T19:46:08.481Z,6.00
2022-10-12T19:48:36.641Z,5.88
2022-10-12T19:51:07.135Z,5.80
2022-10-12T19:53:34.091Z,5.75
2022-10-12T19:56:15.377Z,5.75
2022-10-12T19:58:44.242Z,5.71
2022-10-12T20:01:16.168Z,5.64
2022-10-12T20:03:47.591Z,5.57
2022-10-12T20:06:15.091Z,5.52
2022-10-12T20:08:43.133Z,5.53
2022-10-12T20:11:14.280Z,5.56
2022-10-12T20:13:45.761Z,5.53
2022-10-12T20:16:13.480Z,5.51
2022-10-12T20:18:40.643Z,5.46
2022-10-12T20:21:09.408Z,5.39
2022-10-12T20:23:37.461Z,5.32
2022-10-12T20:26:09.638Z,5.37
2022-10-12T20:28:37.729Z,5.28
2022-10-12T20:31:05.473Z,5.28
2022-10-12T20:33:36.144Z,5.24
2022-10-12T20:36:03.966Z,5.29
2022-10-12T20:38:30.692Z,5.25
2022-10-12T20:41:08.525Z,5.27
2022-10-12T20:43:35.727Z,5.18
2022-10-12T20:46:04.613Z,5.19
2022-10-12T20:48:32.357Z,5.11
2022-10-12T20:50:59.483Z,5.08
2022-10-12T20:53:26.431Z,5.01
2022-10-12T20:55:54.737Z,5.04
2022-10-12T20:58:25.560Z,4.96
2022-10-12T21:01:11.480Z,4.94
2022-10-12T21:03:38.640Z,5.00
2022-10-12T21:06:07.667Z,4.90
2022-10-12T21:08:34.768Z,5.06
2022-10-12T21:11:01.511Z,5.00
2022-10-12T21:13:32.440Z,4.91
2022-10-12T21:15:59.187Z,4.93
2022-10-12T21:18:26.100Z,4.89
2022-10-12T21:21:01.422Z,4.86
2022-10-12T21:23:28.604Z,4.91
2022-10-12T21:25:55.542Z,4.82
2022-10-12T21:28:23.134Z,4.88
2022-10-12T21:30:50.108Z,4.77
2022-10-12T21:33:17.637Z,4.75
2022-10-12T21:35:44.364Z,4.72
2022-10-12T21:38:11.067Z,4.66
2022-10-12T21:40:37.714Z,4.65
2022-10-12T21:43:04.295Z,4.64
2022-10-12T21:45:30.985Z,4.64
2022-10-12T21:47:58.527Z,4.57
2022-10-12T21:50:25.367Z,4.48
2022-10-12T21:52:55.459Z,4.42
2022-10-12T21:55:24.604Z,4.43
2022-10-12T21:57:51.201Z,4.49
2022-10-12T22:00:17.880Z,4.44
2022-10-12T22:02:44.554Z,4.44
2022-10-12T22:05:11.272Z,4.39
2022-10-12T22:07:41.404Z,4.38
2022-10-12T22:10:11.663Z,4.36
2022-10-12T22:12:38.874Z,4.24
2022-10-12T22:15:08.564Z,4.34
2022-10-12T22:17:39.416Z,4.35
2022-10-12T22:20:10.692Z,4.22
2022-10-12T22:22:37.309Z,4.33
2022-10-12T22:25:04.303Z,4.33
2022-10-12T22:27:30.987Z,4.25
2022-10-12T22:30:00.366Z,4.20
2022-10-12T22:32:27.596Z,4.18
2022-10-12T22:34:54.940Z,4.17
2022-10-12T22:37:22.157Z,4.09
2022-10-12T22:39:48.807Z,4.16
2022-10-12T22:42:15.479Z,4.23
2022-10-12T22:44:42.433Z,4.20
2022-10-12T22:47:09.048Z,4.14
2022-10-12T22:49:38.207Z,4.11
2022-10-12T22:52:04.939Z,3.97
2022-10-12T22:54:31.849Z,3.99
2022-10-12T22:56:58.794Z,3.93
2022-10-12T22:59:25.429Z,3.88
2022-10-12T23:01:52.065Z,3.83
2022-10-12T23:04:18.772Z,3.80
2022-10-12T23:06:46.360Z,3.78
2022-10-12T23:09:12.993Z,3.74
2022-10-12T23:11:39.641Z,3.70
2022-10-12T23:14:06.299Z,3.67
2022-10-12T23:16:33.181Z,3.74
2022-10-12T23:19:01.386Z,3.79
2022-10-12T23:21:29.425Z,3.81
2022-10-12T23:23:56.410Z,3.82
2022-10-12T23:26:24.753Z,3.81
2022-10-12T23:28:51.967Z,3.82
2022-10-12T23:31:20.708Z,3.66
2022-10-12T23:33:47.692Z,3.65
2022-10-12T23:36:17.056Z,3.65
2022-10-12T23:38:44.927Z,3.64
2022-10-12T23:41:12.916Z,3.59
2022-10-12T23:43:40.003Z,3.60
2022-10-12T23:46:06.808Z,3.67
2022-10-12T23:48:34.131Z,3.70
2022-10-12T23:51:01.527Z,3.67
2022-10-12T23:53:28.473Z,3.71
2022-10-12T23:55:55.149Z,3.60
2022-10-12T23:58:22.010Z,3.64
